createdAt,value
2019-01-21T00:00:51.990Z,13.03
2019-01-21T00:03:36.636Z,12.57
2019-01-21T00:06:15.527Z,13.67
2019-01-21T00:09:21.162Z,12.73
2019-01-21T00:11:55.147Z,13.13
2019-01-21T00:14:59.366Z,13.63
2019-01-21T00:18:17.658Z,13.50
2019-01-21T00:21:21.510Z,12.57
2019-01-21T00:24:35.534Z,12.50
2019-01-21T00:27:27.696Z,13.93
2019-01-21T00:30:19.873Z,12.80
2019-01-21T00:33:07.095Z,13.67
2019-01-21T00:35:59.966Z,12.90
2019-01-21T00:39:08.809Z,13.77
2019-01-21T00:41:42.099Z,13.50
2019-01-21T00:44:36.280Z,12.63
2019-01-21T00:47:12.816Z,12.70
2019-01-21T00:50:08.185Z,13.80
2019-01-21T00:53:29.790Z,13.03
2019-01-21T00:56:43.570Z,12.13
2019-01-21T00:59:25.310Z,13.13
2019-01-21T01:02:30.093Z,13.27
2019-01-21T01:05:19.988Z,13.30
2019-01-21T01:08:31.917Z,13.97
2019-01-21T01:11:34.649Z,12.50
2019-01-21T01:14:51.051Z,13.17
2019-01-21T01:17:58.114Z,13.53
2019-01-21T01:21:15.205Z,13.20
2019-01-21T01:24:17.688Z,14.23
2019-01-21T01:26:55.631Z,12.90
2019-01-21T01:30:24.419Z,12.97
2019-01-21T01:33:33.936Z,13.13
2019-01-21T01:36:24.197Z,13.90
2019-01-21T01:39:07.281Z,14.33
2019-01-21T01:42:01.719Z,15.03
2019-01-21T01:45:28.418Z,15.10
2019-01-21T01:52:53.726Z,13.83
2019-01-21T01:55:49.002Z,13.90
2019-01-21T01:58:21.682Z,14.23
2019-01-21T02:01:34.784Z,13.80
2019-01-21T02:08:43.381Z,13.67
2019-01-21T02:12:26.228Z,13.63
2019-01-21T02:16:02.178Z,13.77
2019-01-21T02:30:17.807Z,14.00
2019-01-21T02:34:10.250Z,13.23
2019-01-21T02:37:35.421Z,13.30
2019-01-21T02:41:28.688Z,13.90
2019-01-21T02:44:35.908Z,13.57
2019-01-21T02:48:00.081Z,13.57
2019-01-21T02:51:55.527Z,14.57
2019-01-21T02:55:08.080Z,13.43
2019-01-21T02:58:25.231Z,12.90
2019-01-21T03:01:56.453Z,13.43
2019-01-21T03:05:27.228Z,14.20
2019-01-21T03:13:33.813Z,13.83
2019-01-21T03:16:05.153Z,13.27
2019-01-21T03:20:23.702Z,13.17
2019-01-21T03:28:10.284Z,14.07
2019-01-21T03:40:00.370Z,13.27
2019-01-21T03:43:38.632Z,13.87
2019-01-21T03:47:01.285Z,13.23
2019-01-21T03:50:25.374Z,13.37
2019-01-21T03:53:47.091Z,14.03
2019-01-21T04:01:16.799Z,14.20
2019-01-21T04:09:01.110Z,14.13
2019-01-21T04:12:12.928Z,13.70
2019-01-21T04:15:17.947Z,13.70
2019-01-21T04:18:15.733Z,14.90
2019-01-21T04:21:16.978Z,15.47
2019-01-21T04:24:28.126Z,14.13
2019-01-21T04:27:14.019Z,14.20
2019-01-21T04:30:29.160Z,13.13
2019-01-21T04:33:57.077Z,14.10
2019-01-21T04:37:14.980Z,14.43
2019-01-21T04:39:54.150Z,13.03
2019-01-21T04:43:13.409Z,14.13
2019-01-21T04:46:30.087Z,13.17
2019-01-21T04:49:43.859Z,14.30
2019-01-21T04:52:42.962Z,13.97
2019-01-21T04:55:49.424Z,14.30
2019-01-21T04:58:49.038Z,14.47
2019-01-21T05:02:03.985Z,14.93
2019-01-21T05:04:59.973Z,15.30
2019-01-21T05:08:06.319Z,15.33
2019-01-21T05:11:04.087Z,13.83
2019-01-21T05:14:24.975Z,16.48
2019-01-21T05:17:47.244Z,14.33
2019-01-21T05:28:45.243Z,14.27
2019-01-21T05:38:18.490Z,13.90
2019-01-21T05:41:20.450Z,15.23
2019-01-21T05:44:26.836Z,14.20
2019-01-21T05:47:22.228Z,14.47
2019-01-21T05:50:28.389Z,13.63
2019-01-21T05:53:36.066Z,14.83
2019-01-21T05:56:38.999Z,14.40
2019-01-21T05:59:41.585Z,15.58
2019-01-21T06:02:42.753Z,14.33
2019-01-21T06:05:42.621Z,14.73
2019-01-21T06:08:53.660Z,14.07
2019-01-21T06:11:43.314Z,13.30
2019-01-21T06:14:39.519Z,14.87
2019-01-21T06:18:01.793Z,13.97
2019-01-21T06:21:20.232Z,15.00
2019-01-21T06:24:28.250Z,13.87
2019-01-21T06:27:23.657Z,14.13
2019-01-21T06:30:41.542Z,15.00
2019-01-21T06:33:33.664Z,14.37
2019-01-21T06:36:27.910Z,15.83
2019-01-21T06:39:50.184Z,14.47
2019-01-21T06:43:06.259Z,14.23
2019-01-21T06:46:17.102Z,13.50
2019-01-21T06:49:20.432Z,13.80
2019-01-21T06:52:15.229Z,13.43
2019-01-21T06:55:15.002Z,15.00
2019-01-21T06:58:13.911Z,13.83
2019-01-21T07:01:26.305Z,14.07
2019-01-21T07:04:20.090Z,14.53
2019-01-21T07:07:33.675Z,14.13
2019-01-21T07:10:30.000Z,14.27
2019-01-21T07:13:35.890Z,14.70
2019-01-21T07:16:52.719Z,14.70
2019-01-21T07:19:48.908Z,14.87
2019-01-21T07:23:20.208Z,13.73
2019-01-21T07:26:18.098Z,14.43
2019-01-21T07:29:29.861Z,14.50
2019-01-21T07:32:16.574Z,15.13
2019-01-21T07:35:37.306Z,15.20
2019-01-21T07:38:16.071Z,13.97
2019-01-21T07:41:26.128Z,14.37
2019-01-21T07:44:22.286Z,13.73
2019-01-21T07:47:14.804Z,15.03
2019-01-21T07:50:24.034Z,14.97
2019-01-21T07:53:33.697Z,15.07
2019-01-21T07:56:45.963Z,14.83
2019-01-21T07:59:59.228Z,13.97
2019-01-21T08:03:15.582Z,14.37
2019-01-21T08:06:26.093Z,14.23
2019-01-21T08:09:21.664Z,15.60
2019-01-21T08:12:27.552Z,15.30
2019-01-21T08:15:03.782Z,16.27
2019-01-21T08:18:07.630Z,16.13
2019-01-21T08:21:01.808Z,16.10
2019-01-21T08:24:13.431Z,15.43
2019-01-21T08:27:22.690Z,14.30
2019-01-21T08:30:25.665Z,14.17
2019-01-21T08:33:28.398Z,15.23
2019-01-21T08:36:40.137Z,14.23
2019-01-21T08:39:30.151Z,15.80
2019-01-21T08:42:10.507Z,17.37
2019-01-21T08:45:14.448Z,16.30
2019-01-21T08:48:42.883Z,17.90
2019-01-21T08:51:53.448Z,14.53
2019-01-21T08:55:04.985Z,16.20
2019-01-21T08:57:49.139Z,14.43
2019-01-21T09:00:59.951Z,14.63
2019-01-21T09:03:44.437Z,14.83
2019-01-21T09:07:00.635Z,14.43
2019-01-21T09:10:10.469Z,13.73
2019-01-21T09:13:23.016Z,13.80
2019-01-21T09:16:32.005Z,13.77
2019-01-21T09:19:57.628Z,14.53
2019-01-21T09:23:41.096Z,15.13
2019-01-21T09:26:57.008Z,15.00
2019-01-21T09:29:53.548Z,14.73
2019-01-21T09:32:45.865Z,14.57
2019-01-21T09:35:52.410Z,15.00
2019-01-21T09:39:17.895Z,14.63
2019-01-21T09:42:13.601Z,14.50
2019-01-21T09:45:13.815Z,14.87
2019-01-21T09:47:41.950Z,15.00
2019-01-21T09:50:11.914Z,14.47
2019-01-21T09:52:41.708Z,14.83
2019-01-21T09:55:11.391Z,15.03
2019-01-21T09:57:42.593Z,14.17
2019-01-21T10:00:18.394Z,14.17
2019-01-21T10:02:49.836Z,14.63
2019-01-21T10:05:19.989Z,14.67
2019-01-21T10:08:06.212Z,14.13
2019-01-21T10:11:12.215Z,14.87
2019-01-21T10:14:40.916Z,14.07
2019-01-21T10:17:25.575Z,14.20
2019-01-21T10:20:32.477Z,14.20
2019-01-21T10:23:49.057Z,13.77
2019-01-21T10:27:02.401Z,13.77
2019-01-21T10:29:53.720Z,12.37
2019-01-21T10:33:01.491Z,13.73
2019-01-21T10:36:04.892Z,13.57
2019-01-21T10:39:26.150Z,14.10
2019-01-21T10:42:20.350Z,13.53
2019-01-21T10:45:07.895Z,13.87
2019-01-21T10:48:02.971Z,13.53
2019-01-21T10:51:07.119Z,13.03
2019-01-21T10:54:44.257Z,13.83
2019-01-21T10:57:27.226Z,12.70
2019-01-21T11:00:31.821Z,13.70
2019-01-21T11:03:54.174Z,13.13
2019-01-21T11:07:02.877Z,13.80
2019-01-21T11:10:02.849Z,13.87
2019-01-21T11:12:53.659Z,14.27
2019-01-21T11:15:43.678Z,13.93
2019-01-21T11:19:10.685Z,14.83
2019-01-21T11:33:02.175Z,15.43
2019-01-21T11:41:35.437Z,14.23
2019-01-21T11:44:39.487Z,17.20
2019-01-21T11:47:59.117Z,14.27
2019-01-21T11:51:01.510Z,14.43
2019-01-21T11:53:51.532Z,14.63
2019-01-21T11:56:30.202Z,13.87
2019-01-21T11:59:49.715Z,15.10
2019-01-21T12:02:54.510Z,14.87
2019-01-21T12:05:37.150Z,15.13
2019-01-21T12:08:41.219Z,14.57
2019-01-21T12:11:41.249Z,15.37
2019-01-21T12:14:57.856Z,14.67
2019-01-21T12:17:59.128Z,14.50
2019-01-21T12:21:20.533Z,15.10
2019-01-21T12:24:14.868Z,16.20
2019-01-21T12:27:26.375Z,15.33
2019-01-21T12:30:23.692Z,14.63
2019-01-21T12:33:34.037Z,18.05
2019-01-21T12:36:17.139Z,15.30
2019-01-21T12:39:05.426Z,15.60
2019-01-21T12:41:44.831Z,15.77
2019-01-21T12:45:04.185Z,14.67
2019-01-21T12:47:44.388Z,14.57
2019-01-21T12:50:49.567Z,14.60
2019-01-21T12:53:42.547Z,15.43
2019-01-21T12:57:11.174Z,15.90
2019-01-21T13:00:12.006Z,14.97
2019-01-21T13:02:58.647Z,14.37
2019-01-21T13:06:17.990Z,15.00
2019-01-21T13:09:26.478Z,15.23
2019-01-21T13:12:28.799Z,16.27
2019-01-21T13:15:06.130Z,15.00
2019-01-21T13:18:28.462Z,14.93
2019-01-21T13:21:21.809Z,15.50
2019-01-21T13:24:01.353Z,14.73
2019-01-21T13:27:11.750Z,15.50
2019-01-21T13:30:15.071Z,15.23
2019-01-21T13:33:35.024Z,15.90
2019-01-21T13:37:00.817Z,15.57
2019-01-21T13:39:42.615Z,16.43
2019-01-21T13:42:33.355Z,17.67
2019-01-21T13:45:44.229Z,16.90
2019-01-21T13:48:55.240Z,17.67
2019-01-21T13:52:00.551Z,17.73
2019-01-21T13:55:09.780Z,17.53
2019-01-21T13:58:19.904Z,18.23
2019-01-21T14:01:23.909Z,16.97
2019-01-21T14:04:40.525Z,17.07
2019-01-21T14:07:48.034Z,16.73
2019-01-21T14:10:54.592Z,16.53
2019-01-21T14:13:35.948Z,16.67
2019-01-21T14:16:47.039Z,16.53
2019-01-21T14:19:33.801Z,18.10
2019-01-21T14:22:56.300Z,16.67
2019-01-21T14:26:15.081Z,16.90
2019-01-21T14:29:36.870Z,17.53
2019-01-21T14:32:23.939Z,17.90
2019-01-21T14:35:00.942Z,17.47
2019-01-21T14:37:46.713Z,17.33
2019-01-21T14:40:25.740Z,17.90
2019-01-21T14:43:23.960Z,17.57
2019-01-21T14:46:28.070Z,18.83
2019-01-21T14:49:24.331Z,19.03
2019-01-21T14:52:28.227Z,19.83
2019-01-21T14:55:38.929Z,18.77
2019-01-21T14:58:39.451Z,18.13
2019-01-21T15:02:11.257Z,18.47
2019-01-21T15:05:06.144Z,18.03
2019-01-21T15:07:47.483Z,18.20
2019-01-21T15:11:02.574Z,19.20
2019-01-21T15:14:15.127Z,21.85
2019-01-21T15:17:28.297Z,19.87
2019-01-21T15:20:41.126Z,18.77
2019-01-21T15:23:50.558Z,18.53
2019-01-21T15:27:03.295Z,19.07
2019-01-21T15:30:05.161Z,18.83
2019-01-21T15:33:06.108Z,17.67
2019-01-21T15:36:07.415Z,19.23
2019-01-21T15:39:04.869Z,20.03
2019-01-21T15:41:56.999Z,18.20
2019-01-21T15:45:34.996Z,18.73
2019-01-21T15:51:27.291Z,18.10
2019-01-21T15:54:35.176Z,18.53
2019-01-21T15:57:45.121Z,18.17
2019-01-21T16:01:14.036Z,18.60
2019-01-21T16:04:06.722Z,18.23
2019-01-21T16:06:45.243Z,18.70
2019-01-21T16:09:51.624Z,18.93
2019-01-21T16:12:45.343Z,18.53
2019-01-21T16:16:02.156Z,19.33
2019-01-21T16:18:37.843Z,19.53
2019-01-21T16:21:37.147Z,20.27
2019-01-21T16:24:31.395Z,19.43
2019-01-21T16:27:22.840Z,19.50
2019-01-21T16:30:18.640Z,18.50
2019-01-21T16:33:43.060Z,20.40
2019-01-21T16:36:26.624Z,19.37
2019-01-21T16:39:27.765Z,18.43
2019-01-21T16:42:14.986Z,19.07
2019-01-21T16:44:46.650Z,19.43
2019-01-21T16:47:16.232Z,19.73
2019-01-21T16:49:45.933Z,19.63
2019-01-21T16:52:15.477Z,19.37
2019-01-21T16:54:45.073Z,20.07
2019-01-21T16:57:14.654Z,20.83
2019-01-21T16:59:44.244Z,19.47
2019-01-21T17:02:13.817Z,18.87
2019-01-21T17:04:43.390Z,20.33
2019-01-21T17:07:13.176Z,19.42
2019-01-21T17:09:42.755Z,19.33
2019-01-21T17:12:12.391Z,18.93
2019-01-21T17:14:41.887Z,18.60
2019-01-21T17:19:40.980Z,17.47
2019-01-21T17:22:10.441Z,16.67
2019-01-21T17:24:40.002Z,19.90
2019-01-21T17:27:09.583Z,18.03
2019-01-21T17:29:39.103Z,17.53
2019-01-21T17:32:09.007Z,21.37
2019-01-21T17:34:38.610Z,18.23
2019-01-21T17:37:08.156Z,17.93
2019-01-21T17:39:37.683Z,17.00
2019-01-21T17:42:07.181Z,16.87
2019-01-21T17:44:55.763Z,17.03
2019-01-21T17:47:25.343Z,16.37
2019-01-21T17:49:55.032Z,16.73
2019-01-21T17:52:24.765Z,17.80
2019-01-21T17:54:55.798Z,17.80
2019-01-21T17:57:48.091Z,16.03
2019-01-21T18:03:50.881Z,17.23
2019-01-21T18:06:39.842Z,16.77
2019-01-21T18:09:28.652Z,17.23
2019-01-21T18:12:19.973Z,16.37
2019-01-21T18:15:09.987Z,16.70
2019-01-21T18:18:19.254Z,17.37
2019-01-21T18:21:11.274Z,16.80
2019-01-21T18:30:08.219Z,17.47
2019-01-21T18:32:38.027Z,17.83
2019-01-21T18:35:09.058Z,17.30
2019-01-21T18:37:38.764Z,17.77
2019-01-21T18:40:27.308Z,15.97
2019-01-21T18:43:15.921Z,15.10
2019-01-21T18:49:46.211Z,16.43
2019-01-21T18:51:59.082Z,16.17
2019-01-21T18:54:28.787Z,16.87
2019-01-21T18:56:58.831Z,15.00
2019-01-21T18:59:28.504Z,17.53
2019-01-21T19:02:17.206Z,16.67
2019-01-21T19:07:55.044Z,16.60
2019-01-21T19:10:43.575Z,16.87
2019-01-21T19:13:32.443Z,15.63
2019-01-21T19:16:21.176Z,16.43
2019-01-21T19:25:37.386Z,16.63
2019-01-21T19:28:26.435Z,16.73
2019-01-21T19:33:55.982Z,15.93
2019-01-21T19:42:13.549Z,16.83
2019-01-21T19:44:54.679Z,17.93
2019-01-21T19:47:36.142Z,16.40
2019-01-21T19:50:06.873Z,17.30
2019-01-21T19:52:36.544Z,17.33
2019-01-21T19:55:26.867Z,17.43
2019-01-21T19:58:23.191Z,17.00
2019-01-21T20:07:03.459Z,18.70
2019-01-21T20:12:51.085Z,17.20
2019-01-21T20:15:39.834Z,17.43
2019-01-21T20:18:09.447Z,18.00
2019-01-21T20:23:54.022Z,18.17
2019-01-21T20:26:43.317Z,17.70
2019-01-21T20:35:15.789Z,17.87
2019-01-21T20:37:48.743Z,17.57
2019-01-21T20:40:37.452Z,17.17
2019-01-21T20:46:23.774Z,17.57
2019-01-21T20:49:12.503Z,16.73
2019-01-21T20:52:01.014Z,16.83
2019-01-21T20:57:31.554Z,16.23
2019-01-21T21:03:21.449Z,17.00
2019-01-21T21:06:10.124Z,16.00
2019-01-21T21:08:40.333Z,16.93
2019-01-21T21:11:10.191Z,17.80
2019-01-21T21:13:39.902Z,17.90
2019-01-21T21:16:09.591Z,17.50
2019-01-21T21:18:39.328Z,17.90
2019-01-21T21:21:08.787Z,17.07
2019-01-21T21:29:41.925Z,15.67
2019-01-21T21:32:22.872Z,14.70
2019-01-21T21:34:52.468Z,16.43
2019-01-21T21:37:45.500Z,16.12
2019-01-21T21:40:16.783Z,16.47
2019-01-21T21:42:46.701Z,16.50
2019-01-21T21:45:21.392Z,16.90
2019-01-21T21:48:10.397Z,15.17
2019-01-21T21:50:58.984Z,15.97
2019-01-21T21:53:47.550Z,16.13
2019-01-21T21:56:36.471Z,16.07
2019-01-21T21:59:25.055Z,15.90
2019-01-21T22:02:13.618Z,16.23
2019-01-21T22:05:02.605Z,16.07
2019-01-21T22:07:51.181Z,15.53
2019-01-21T22:13:35.494Z,15.87
2019-01-21T22:16:26.286Z,15.97
2019-01-21T22:22:10.559Z,15.83
2019-01-21T22:24:59.938Z,16.47
2019-01-21T22:30:36.766Z,16.00
2019-01-21T22:33:06.873Z,16.20
2019-01-21T22:35:36.439Z,15.63
2019-01-21T22:38:05.996Z,16.13
2019-01-21T22:43:47.345Z,18.13
2019-01-21T22:46:17.482Z,18.47
2019-01-21T22:49:06.443Z,17.10
2019-01-21T22:51:36.007Z,17.97
2019-01-21T22:54:05.490Z,16.73
2019-01-21T22:59:49.877Z,16.43
2019-01-21T23:02:38.540Z,16.67
2019-01-21T23:05:28.468Z,17.17
2019-01-21T23:11:14.304Z,15.83
2019-01-21T23:16:58.685Z,15.77
2019-01-21T23:19:47.205Z,15.23
2019-01-21T23:22:16.751Z,15.83
2019-01-21T23:24:46.340Z,16.97
2019-01-21T23:27:34.933Z,16.00
2019-01-21T23:30:16.535Z,17.10
2019-01-21T23:32:57.273Z,15.93
2019-01-21T23:35:39.310Z,15.60
2019-01-21T23:38:20.880Z,16.10
2019-01-21T23:41:02.187Z,17.70
2019-01-21T23:46:30.138Z,17.30
2019-01-21T23:52:01.135Z,17.20
2019-01-21T23:54:46.779Z,16.50
